createdAt,value
2022-09-05T00:02:10.967Z,9.30
2022-09-05T00:04:56.343Z,9.20
2022-09-05T00:07:58.834Z,9.20
2022-09-05T00:11:41.707Z,9.10
2022-09-05T00:14:13.774Z,9.10
2022-09-05T00:17:01.968Z,9.10
2022-09-05T00:24:17.283Z,9.10
2022-09-05T00:24:35.776Z,9.10
2022-09-05T00:26:04.349Z,9.10
2022-09-05T00:29:08.952Z,9.00
2022-09-05T00:32:04.828Z,9.00
2022-09-05T00:34:50.234Z,9.00
2022-09-05T00:37:37.947Z,9.00
2022-09-05T00:40:33.146Z,8.90
2022-09-05T00:43:22.520Z,8.90
2022-09-05T00:46:15.061Z,8.80
2022-09-05T00:49:09.493Z,8.80
2022-09-05T00:51:58.636Z,8.70
2022-09-05T00:54:43.774Z,8.70
2022-09-05T00:57:48.101Z,8.70
2022-09-05T01:00:33.531Z,8.70
2022-09-05T01:03:37.325Z,8.60
2022-09-05T01:06:23.355Z,8.60
2022-09-05T01:09:12.892Z,8.60
2022-09-05T01:12:04.499Z,8.60
2022-09-05T01:15:25.371Z,8.60
2022-09-05T01:18:35.926Z,8.60
2022-09-05T01:21:27.316Z,8.60
2022-09-05T01:24:15.538Z,8.60
2022-09-05T01:27:38.224Z,8.60
2022-09-05T01:30:55.544Z,8.60
2022-09-05T01:33:43.847Z,8.60
2022-09-05T01:36:34.833Z,8.60
2022-09-05T01:40:11.607Z,8.60
2022-09-05T01:42:37.031Z,8.60
2022-09-05T01:45:30.775Z,8.70
2022-09-05T01:48:24.983Z,8.70
2022-09-05T01:51:29.090Z,8.80
2022-09-05T01:54:25.251Z,8.80
2022-09-05T01:57:20.332Z,8.90
2022-09-05T02:00:12.383Z,8.90
2022-09-05T02:03:33.164Z,9.00
2022-09-05T02:06:18.772Z,9.00
2022-09-05T02:09:19.130Z,8.90
2022-09-05T02:12:21.598Z,8.90
2022-09-05T02:15:10.060Z,8.80
2022-09-05T02:17:58.731Z,8.90
2022-09-05T02:20:47.039Z,8.80
2022-09-05T02:23:42.174Z,8.80
2022-09-05T02:26:31.345Z,8.80
2022-09-05T02:29:35.260Z,8.80
2022-09-05T02:32:27.223Z,10.70
2022-09-05T02:35:17.669Z,8.70
2022-09-05T02:39:34.897Z,8.70
2022-09-05T02:45:05.996Z,8.70
2022-09-05T02:45:13.247Z,8.70
2022-09-05T02:47:44.093Z,8.80
2022-09-05T02:57:25.901Z,8.70
2022-09-05T02:57:28.327Z,8.80
2022-09-05T02:57:38.163Z,8.60
2022-09-05T03:00:06.012Z,8.60
2022-09-05T03:03:03.835Z,8.60
2022-09-05T03:06:01.380Z,8.70
2022-09-05T03:08:46.435Z,8.70
2022-09-05T03:11:37.884Z,8.70
2022-09-05T03:14:44.878Z,8.50
2022-09-05T03:17:56.399Z,8.50
2022-09-05T03:21:24.542Z,8.50
2022-09-05T03:24:28.664Z,8.40
2022-09-05T03:27:16.817Z,8.50
2022-09-05T03:30:15.820Z,8.50
2022-09-05T03:33:04.416Z,8.50
2022-09-05T03:36:06.433Z,8.40
2022-09-05T03:39:17.565Z,8.40
2022-09-05T03:42:14.669Z,8.40
2022-09-05T03:45:29.881Z,8.40
2022-09-05T03:48:29.339Z,8.40
2022-09-05T03:57:06.952Z,8.40
2022-09-05T03:57:27.736Z,8.40
2022-09-05T03:57:42.629Z,8.40
2022-09-05T04:00:32.650Z,8.40
2022-09-05T04:08:11.632Z,8.40
2022-09-05T04:08:14.409Z,8.50
2022-09-05T04:09:53.737Z,8.50
2022-09-05T04:12:47.251Z,8.50
2022-09-05T04:15:32.584Z,8.50
2022-09-05T04:18:17.793Z,8.50
2022-09-05T04:21:27.639Z,8.50
2022-09-05T04:24:28.192Z,8.50
2022-09-05T04:27:28.138Z,8.60
2022-09-05T04:30:39.516Z,8.60
2022-09-05T04:33:37.015Z,8.50
2022-09-05T04:36:28.765Z,8.50
2022-09-05T04:39:20.261Z,8.50
2022-09-05T04:42:06.016Z,8.60
2022-09-05T04:45:00.351Z,8.60
2022-09-05T04:47:52.320Z,8.60
2022-09-05T04:50:58.222Z,8.60
2022-09-05T04:54:03.872Z,8.60
2022-09-05T04:56:50.897Z,8.60
2022-09-05T05:05:58.391Z,8.60
2022-09-05T05:06:13.900Z,8.70
2022-09-05T05:09:34.117Z,8.80
2022-09-05T05:17:56.420Z,9.00
2022-09-05T05:17:57.886Z,9.10
2022-09-05T05:18:56.423Z,9.20
2022-09-05T05:21:49.277Z,9.40
2022-09-05T05:24:36.501Z,9.60
2022-09-05T05:27:25.921Z,9.70
2022-09-05T05:30:11.989Z,9.80
2022-09-05T05:32:58.368Z,9.90
2022-09-05T05:35:48.453Z,10.00
2022-09-05T05:38:34.224Z,10.00
2022-09-05T05:41:19.379Z,10.00
2022-09-05T05:44:26.688Z,10.10
2022-09-05T05:47:29.851Z,10.10
2022-09-05T05:50:23.953Z,10.20
2022-09-05T05:53:41.027Z,10.30
2022-09-05T05:56:46.901Z,10.60
2022-09-05T05:59:31.928Z,10.40
2022-09-05T06:02:36.089Z,10.50
2022-09-05T06:05:27.796Z,10.50
2022-09-05T06:12:08.312Z,10.70
2022-09-05T06:14:57.015Z,10.70
2022-09-05T06:15:10.658Z,10.70
2022-09-05T06:18:14.487Z,10.80
2022-09-05T06:22:07.253Z,10.90
2022-09-05T06:24:47.148Z,11.00
2022-09-05T06:27:35.026Z,11.10
2022-09-05T06:30:32.954Z,11.20
2022-09-05T06:33:26.774Z,11.30
2022-09-05T06:36:12.030Z,11.40
2022-09-05T06:38:57.403Z,11.50
2022-09-05T06:42:01.415Z,11.60
2022-09-05T06:45:27.172Z,11.80
2022-09-05T06:48:35.257Z,11.90
2022-09-05T06:51:37.854Z,12.70
2022-09-05T06:54:39.992Z,12.20
2022-09-05T06:57:54.245Z,12.40
2022-09-05T07:00:53.600Z,12.60
2022-09-05T07:03:57.348Z,12.80
2022-09-05T07:07:02.199Z,13.00
2022-09-05T07:10:03.855Z,13.20
2022-09-05T07:13:03.472Z,13.40
2022-09-05T07:16:03.877Z,13.50
2022-09-05T07:18:50.108Z,13.60
2022-09-05T07:21:47.892Z,13.80
2022-09-05T07:24:54.248Z,14.00
2022-09-05T07:28:28.378Z,14.10
2022-09-05T07:31:14.884Z,14.30
2022-09-05T07:34:22.829Z,14.40
2022-09-05T07:37:14.276Z,14.50
2022-09-05T07:40:24.586Z,14.60
2022-09-05T07:43:10.635Z,14.60
2022-09-05T07:46:15.158Z,14.70
2022-09-05T07:49:12.280Z,14.70
2022-09-05T07:56:50.857Z,14.70
2022-09-05T07:57:02.242Z,14.70
2022-09-05T07:58:41.238Z,14.80
2022-09-05T08:01:26.907Z,14.80
2022-09-05T08:04:23.263Z,14.90
2022-09-05T08:07:46.944Z,15.10
2022-09-05T08:10:35.673Z,15.10
2022-09-05T08:13:52.931Z,15.40
2022-09-05T08:16:46.698Z,15.50
2022-09-05T08:19:32.009Z,15.60
2022-09-05T08:22:21.576Z,15.80
2022-09-05T08:25:17.705Z,15.90
2022-09-05T08:28:19.584Z,15.80
2022-09-05T08:31:07.629Z,15.80
2022-09-05T08:33:56.213Z,15.90
2022-09-05T08:36:51.218Z,15.90
2022-09-05T08:39:36.524Z,15.90
2022-09-05T08:42:40.674Z,16.00
2022-09-05T08:46:44.301Z,16.10
2022-09-05T08:48:36.367Z,16.10
2022-09-05T08:51:41.291Z,16.20
2022-09-05T08:54:54.853Z,16.20
2022-09-05T08:57:59.534Z,16.30
2022-09-05T09:00:59.060Z,16.50
2022-09-05T09:04:06.041Z,16.60
2022-09-05T09:07:29.166Z,16.80
2022-09-05T09:10:25.943Z,16.90
2022-09-05T09:13:11.558Z,17.10
2022-09-05T09:16:11.644Z,17.10
2022-09-05T09:18:57.108Z,17.10
2022-09-05T09:21:58.206Z,17.20
2022-09-05T09:25:14.600Z,17.10
2022-09-05T09:28:49.813Z,17.00
2022-09-05T09:31:18.025Z,16.90
2022-09-05T09:34:11.920Z,16.90
2022-09-05T09:37:16.431Z,16.90
2022-09-05T09:40:24.531Z,16.90
2022-09-05T09:43:27.315Z,16.90
2022-09-05T09:46:22.766Z,16.90
2022-09-05T09:49:09.557Z,16.90
2022-09-05T09:52:36.130Z,16.90
2022-09-05T09:55:41.109Z,16.90
2022-09-05T09:58:45.276Z,17.00
2022-09-05T10:01:53.364Z,17.00
2022-09-05T10:10:35.163Z,17.10
2022-09-05T10:10:47.756Z,17.00
2022-09-05T10:11:52.932Z,16.90
2022-09-05T10:14:47.890Z,16.80
2022-09-05T10:17:52.803Z,16.60
2022-09-05T10:21:17.120Z,16.40
2022-09-05T10:24:15.387Z,16.20
2022-09-05T10:27:01.005Z,16.00
2022-09-05T10:30:06.393Z,15.80
2022-09-05T10:35:08.003Z,15.90
2022-09-05T10:36:22.477Z,16.10
2022-09-05T10:39:16.448Z,16.50
2022-09-05T10:42:03.696Z,16.80
2022-09-05T10:44:53.033Z,16.80
2022-09-05T10:47:41.417Z,16.90
2022-09-05T10:50:28.995Z,16.90
2022-09-05T10:53:39.477Z,17.00
2022-09-05T10:56:29.384Z,17.20
2022-09-05T11:02:24.273Z,17.40
2022-09-05T11:02:41.160Z,17.50
2022-09-05T11:05:37.603Z,17.70
2022-09-05T11:08:46.199Z,17.80
2022-09-05T11:11:39.846Z,17.80
2022-09-05T11:14:35.417Z,17.90
2022-09-05T11:17:30.095Z,17.70
2022-09-05T11:20:34.844Z,17.30
2022-09-05T11:23:25.410Z,17.10
2022-09-05T11:26:29.524Z,17.10
2022-09-05T11:29:20.945Z,16.90
2022-09-05T11:33:53.465Z,16.70
2022-09-05T11:39:52.701Z,16.70
2022-09-05T11:39:57.628Z,16.70
2022-09-05T11:41:53.246Z,17.00
2022-09-05T11:44:44.786Z,17.20
2022-09-05T11:47:48.747Z,17.40
2022-09-05T11:50:51.241Z,17.50
2022-09-05T11:53:57.396Z,17.60
2022-09-05T11:57:12.784Z,17.80
2022-09-05T12:00:32.876Z,17.80
2022-09-05T12:03:58.145Z,17.80
2022-09-05T12:06:59.594Z,17.60
2022-09-05T12:09:45.842Z,17.20
2022-09-05T12:12:41.195Z,17.00
2022-09-05T12:15:36.662Z,17.00
2022-09-05T12:18:29.031Z,16.90
2022-09-05T12:21:19.459Z,16.80
2022-09-05T12:25:15.332Z,16.80
2022-09-05T12:27:41.872Z,16.90
2022-09-05T12:30:42.384Z,17.00
2022-09-05T12:36:06.247Z,17.10
2022-09-05T12:40:55.677Z,17.20
2022-09-05T12:41:42.467Z,17.40
2022-09-05T12:44:36.753Z,17.70
2022-09-05T12:46:23.636Z,17.90
2022-09-05T12:49:13.141Z,18.00
2022-09-05T12:52:03.795Z,18.20
2022-09-05T12:54:56.554Z,18.20
2022-09-05T13:02:56.752Z,18.20
2022-09-05T13:03:11.796Z,18.30
2022-09-05T13:04:32.242Z,18.50
2022-09-05T13:07:22.002Z,18.60
2022-09-05T13:12:52.628Z,18.50
2022-09-05T13:14:52.745Z,18.50
2022-09-05T13:16:39.725Z,18.10
2022-09-05T13:19:30.670Z,18.10
2022-09-05T13:22:16.485Z,18.10
2022-09-05T13:25:10.238Z,18.10
2022-09-05T13:28:01.664Z,18.10
2022-09-05T13:35:51.855Z,18.10
2022-09-05T13:38:04.720Z,17.90
2022-09-05T13:38:11.402Z,17.90
2022-09-05T13:40:15.820Z,17.70
2022-09-05T13:43:21.862Z,17.50
2022-09-05T13:46:17.097Z,17.30
2022-09-05T13:49:29.451Z,17.20
2022-09-05T13:52:26.349Z,17.10
2022-09-05T13:55:24.399Z,17.30
2022-09-05T13:58:13.080Z,17.20
2022-09-05T14:01:18.882Z,17.30
2022-09-05T14:04:13.517Z,17.40
2022-09-05T14:10:48.460Z,17.60
2022-09-05T14:13:47.433Z,17.50
2022-09-05T14:16:34.063Z,17.50
2022-09-05T14:19:48.894Z,17.50
2022-09-05T14:22:40.863Z,17.40
2022-09-05T14:25:27.489Z,17.40
2022-09-05T14:28:18.187Z,17.40
2022-09-05T14:37:26.550Z,17.50
2022-09-05T14:37:39.802Z,17.50
2022-09-05T14:38:04.401Z,17.30
2022-09-05T14:41:07.528Z,17.10
2022-09-05T14:44:05.337Z,17.10
2022-09-05T14:47:35.304Z,17.00
2022-09-05T14:50:30.461Z,16.90
2022-09-05T14:57:23.992Z,16.80
2022-09-05T15:02:51.987Z,16.70
2022-09-05T15:03:01.978Z,16.80
2022-09-05T15:05:50.587Z,16.70
2022-09-05T15:10:52.525Z,16.70
2022-09-05T15:12:28.017Z,16.60
2022-09-05T15:15:00.568Z,16.40
2022-09-05T15:17:47.386Z,16.30
2022-09-05T15:20:36.617Z,16.10
2022-09-05T15:23:26.062Z,16.00
2022-09-05T15:26:25.831Z,15.90
2022-09-05T15:29:14.722Z,15.80
2022-09-05T15:32:14.921Z,15.80
2022-09-05T15:35:00.610Z,15.70
2022-09-05T15:37:46.041Z,15.60
2022-09-05T15:40:31.426Z,15.40
2022-09-05T15:43:16.687Z,15.30
2022-09-05T15:46:03.449Z,15.20
2022-09-05T15:48:56.386Z,15.10
2022-09-05T15:51:44.814Z,15.00
2022-09-05T15:54:48.966Z,14.90
2022-09-05T15:57:37.646Z,14.80
2022-09-05T16:00:41.439Z,14.80
2022-09-05T16:04:07.043Z,14.70
2022-09-05T16:10:39.698Z,14.70
2022-09-05T16:10:45.523Z,14.60
2022-09-05T16:12:51.207Z,14.50
2022-09-05T16:23:18.147Z,14.30
2022-09-05T16:23:18.845Z,14.40
2022-09-05T16:23:26.778Z,14.20
2022-09-05T16:25:26.009Z,14.20
2022-09-05T16:28:15.428Z,14.00
2022-09-05T16:31:02.585Z,13.90
2022-09-05T16:33:48.497Z,16.20
2022-09-05T16:36:42.521Z,13.80
2022-09-05T16:39:34.703Z,13.60
2022-09-05T16:42:46.603Z,13.60
2022-09-05T16:45:52.973Z,13.50
2022-09-05T16:48:48.057Z,13.40
2022-09-05T16:51:45.482Z,13.30
2022-09-05T16:54:44.995Z,13.20
2022-09-05T16:57:32.637Z,13.20
2022-09-05T17:00:17.876Z,13.10
2022-09-05T17:03:28.711Z,13.00
2022-09-05T17:06:26.411Z,12.90
2022-09-05T17:09:19.848Z,14.10
2022-09-05T17:12:12.096Z,12.70
2022-09-05T17:15:00.923Z,12.60
2022-09-05T17:18:19.214Z,12.50
2022-09-05T17:20:55.978Z,12.40
2022-09-05T17:29:18.547Z,12.30
2022-09-05T17:29:26.427Z,12.20
2022-09-05T17:31:12.297Z,12.10
2022-09-05T17:33:16.428Z,12.10
2022-09-05T17:36:19.548Z,11.90
2022-09-05T17:39:10.722Z,11.90
2022-09-05T17:41:55.897Z,11.80
2022-09-05T17:44:56.251Z,11.70
2022-09-05T17:47:49.432Z,11.60
2022-09-05T17:50:34.797Z,11.50
2022-09-05T17:53:26.113Z,11.50
2022-09-05T17:56:26.261Z,11.40
2022-09-05T17:59:18.673Z,11.30
2022-09-05T18:02:07.045Z,11.20
2022-09-05T18:04:53.712Z,11.20
2022-09-05T18:07:44.348Z,11.10
2022-09-05T18:10:49.825Z,11.00
2022-09-05T18:13:53.930Z,11.00
2022-09-05T18:17:37.390Z,10.90
2022-09-05T18:19:57.952Z,10.80
2022-09-05T18:22:46.575Z,10.80
2022-09-05T18:25:42.668Z,10.70
2022-09-05T18:28:35.619Z,10.60
2022-09-05T18:31:41.453Z,10.60
2022-09-05T18:34:34.357Z,10.60
2022-09-05T18:37:39.143Z,10.60
2022-09-05T18:40:36.712Z,10.50
2022-09-05T18:43:22.536Z,10.50
2022-09-05T18:46:14.931Z,10.50
2022-09-05T18:50:22.705Z,10.50
2022-09-05T18:52:23.396Z,10.50
2022-09-05T18:56:10.224Z,10.40
2022-09-05T18:58:34.557Z,10.50
2022-09-05T19:01:22.404Z,10.40
2022-09-05T19:04:41.657Z,10.40
2022-09-05T19:07:35.556Z,10.50
2022-09-05T19:10:35.565Z,10.50
2022-09-05T19:13:31.593Z,10.50
2022-09-05T19:16:43.910Z,10.50
2022-09-05T19:19:31.377Z,10.40
2022-09-05T19:23:06.684Z,10.40
2022-09-05T19:25:24.554Z,10.30
2022-09-05T19:36:46.395Z,10.20
2022-09-05T19:36:54.343Z,10.20
2022-09-05T19:37:05.475Z,10.20
2022-09-05T19:37:47.888Z,10.20
2022-09-05T19:47:25.257Z,10.10
2022-09-05T19:47:38.544Z,10.10
2022-09-05T19:47:56.453Z,10.10
2022-09-05T19:50:33.809Z,10.10
2022-09-05T19:53:19.614Z,10.00
2022-09-05T19:56:04.920Z,10.00
2022-09-05T19:58:50.899Z,10.00
2022-09-05T20:01:41.952Z,10.00
2022-09-05T20:04:30.202Z,10.10
2022-09-05T20:07:16.578Z,10.10
2022-09-05T20:10:03.860Z,10.10
2022-09-05T20:12:49.374Z,10.10
2022-09-05T20:15:36.580Z,10.10
2022-09-05T20:18:22.488Z,10.00
2022-09-05T20:21:15.507Z,10.00
2022-09-05T20:24:00.877Z,9.90
2022-09-05T20:26:47.285Z,9.90
2022-09-05T20:29:55.260Z,10.00
2022-09-05T20:32:43.113Z,9.90
2022-09-05T20:39:32.726Z,10.00
2022-09-05T20:43:18.013Z,10.00
2022-09-05T20:43:27.335Z,10.00
2022-09-05T20:45:01.067Z,10.00
2022-09-05T20:54:07.983Z,11.30
2022-09-05T20:54:14.020Z,10.00
2022-09-05T20:54:32.063Z,10.00
2022-09-05T20:57:18.341Z,9.90
2022-09-05T21:00:13.054Z,9.80
2022-09-05T21:02:59.226Z,9.80
2022-09-05T21:05:45.602Z,9.80
2022-09-05T21:08:34.981Z,9.80
2022-09-05T21:11:30.747Z,9.70
2022-09-05T21:14:20.707Z,9.70
2022-09-05T21:17:15.243Z,9.70
2022-09-05T21:20:06.004Z,9.10
2022-09-05T21:22:51.389Z,9.70
2022-09-05T21:25:47.832Z,9.80
2022-09-05T21:28:37.251Z,9.80
2022-09-05T21:31:25.225Z,9.80
2022-09-05T21:34:14.143Z,9.80
2022-09-05T21:37:07.332Z,9.80
2022-09-05T21:39:59.564Z,9.80
2022-09-05T21:47:33.281Z,9.70
2022-09-05T21:47:33.599Z,9.70
2022-09-05T21:48:57.089Z,9.70
2022-09-05T21:51:48.260Z,9.60
2022-09-05T21:59:14.415Z,9.60
2022-09-05T21:59:20.519Z,9.60
2022-09-05T22:00:51.499Z,9.60
2022-09-05T22:03:39.126Z,9.60
2022-09-05T22:06:29.271Z,9.50
2022-09-05T22:09:17.112Z,9.50
2022-09-05T22:12:06.095Z,9.50
2022-09-05T22:15:26.604Z,9.50
2022-09-05T22:18:17.299Z,9.50
2022-09-05T22:21:32.197Z,9.50
2022-09-05T22:24:10.720Z,9.40
2022-09-05T22:27:12.073Z,9.40
2022-09-05T22:29:58.325Z,9.40
2022-09-05T22:32:43.946Z,9.40
2022-09-05T22:35:29.320Z,9.50
2022-09-05T22:38:29.291Z,9.40
2022-09-05T22:41:14.648Z,9.40
2022-09-05T22:44:00.278Z,9.40
2022-09-05T22:46:45.308Z,9.40
2022-09-05T22:49:31.077Z,9.30
2022-09-05T22:52:16.475Z,9.20
2022-09-05T22:55:01.651Z,9.20
2022-09-05T22:57:46.824Z,9.10
2022-09-05T23:00:32.793Z,9.10
2022-09-05T23:03:18.293Z,9.10
2022-09-05T23:06:05.056Z,9.20
2022-09-05T23:08:50.505Z,9.20
2022-09-05T23:11:36.058Z,9.20
2022-09-05T23:14:21.360Z,9.20
2022-09-05T23:17:06.989Z,9.30
2022-09-05T23:19:52.502Z,9.30
2022-09-05T23:22:38.121Z,9.40
2022-09-05T23:25:24.107Z,9.50
2022-09-05T23:28:09.443Z,9.50
2022-09-05T23:30:54.701Z,9.50
2022-09-05T23:33:41.549Z,9.60
2022-09-05T23:36:26.620Z,9.60
2022-09-05T23:39:12.368Z,9.60
2022-09-05T23:41:57.385Z,9.70
2022-09-05T23:44:42.494Z,9.70
2022-09-05T23:47:29.629Z,9.70
2022-09-05T23:50:15.605Z,9.70
2022-09-05T23:53:03.452Z,9.70
2022-09-05T23:55:48.887Z,9.70
2022-09-05T23:58:34.613Z,9.70
